Percilla, Texas
Current Conditions -  °F | °C
As of 7:35 AM on Sunday 21 Dec 2014 (Local Time) from KDKR Reporting Station
Overcast Overcast  
Wind Chill: 48°   Ceiling: 1700
Heat Index: 48°   Visibility: NA
Dew Point: 46°   Wind: 0mph
Humidity: 93%   Direction: NA
Pressure: 30.16"   Gusts: NA
Location:  31.4982°N, 95.4177°W
Report Text: KDKR 211335Z AUTO 00000KT OVC017 09/08 A3016 RMK AO2
Loading
Personal Weather Stations






























Interactive Weather Map New forecast layout! Learn more

10-Day Weather Forecast

Advertisements
Track Severe Weather on mobile